Airfield :
LOGIN :

Register | Disclaimer

   EN    FR    IT 

 










Legend :    VFR   Marginal VFR   IFR   Intensive IFR   Very Intensive IFR
Visi :
Ceiling :
>= 8 km
>= 3000ft
5 to 8 km
1000 to 3000 ft
1500m to 5 km
500 to 1000 ft
800 to 1500m
200 to 500 ft
< 800m
< 200 ft
Symbols :   Thunderstorms  Fog  Heavy snow  Heavy precipitations  Wind > 20 kt
SIGMETs :     Misc.  Thunderstorms  Icing  Turbulence  Mountain Waves  Volcanic Ashes






- Airport Elevation : 126 ft
- IATA code : WIC


EGPC - Wick

CURRENT METAR :
  • 092250Z AUTO 19013KT 9999 -RA FEW015/// BKN039/// BKN046/// 06/02 Q1009

EXPIRED METARs :
  • 092220Z AUTO 19011G21KT 160V230 9999 -RA SCT023/// BKN036/// 05/01 Q1010
  • 092150Z AUTO 18013KT 9999 OVC039/// 06/01 Q1011
  • 092120Z AUTO 20010KT 9999 BKN030/// BKN045/// 05/01 Q1011
  • 092020Z 20005KT 9999 FEW015 03/M01 Q1013

TAF TAF EGPC
Valid from the 09 at 21:00 until the 10 at 06:00 UTC


091953Z 0921/1006 20009KT 9999 FEW028
BECMG 0921/0924 17019KT
PROB30
TEMPO 0922/1001 4000 RADZ BKN009
TEMPO 0923/1003 18022G32KT
TEMPO 1003/1006 18030G40KT
PROB40
TEMPO 1005/1006 6000 RA BKN014
ATIS : +44 1955 607 596



MET'MAP, your aeronautical weather chart ! - Copyright ORBIFLY December 2007 - Disclaimer

ORBIFLY MET'MAP TEAM :

Programming & Development : Alexandra Zaïnal
Concept & original design : Baudouin d'Aumeries
Assistance for programming : Marc-Olivier Méhu
Technical & hardware support : Manuel Goepfert

Contact : metmap@orbifly.com




SOURCES & CREDITS :

   NOAA